sensor_id;sensor_type;location;lat;lon;timestamp;temperature;humidity
41469;DHT22;27206;47.032;15.484;2023-05-20T00:01:00;14.00;1.00
41469;DHT22;27206;47.032;15.484;2023-05-20T00:03:26;14.00;1.00
41469;DHT22;27206;47.032;15.484;2023-05-20T00:05:51;14.10;1.00
41469;DHT22;27206;47.032;15.484;2023-05-20T00:08:20;14.10;1.00
41469;DHT22;27206;47.032;15.484;2023-05-20T00:10:46;14.00;1.00
41469;DHT22;27206;47.032;15.484;2023-05-20T00:13:11;14.00;1.00
41469;DHT22;27206;47.032;15.484;2023-05-20T00:15:37;14.00;1.00
41469;DHT22;27206;47.032;15.484;2023-05-20T00:18:03;14.00;1.00
41469;DHT22;27206;47.032;15.484;2023-05-20T00:20:29;14.00;1.00
41469;DHT22;27206;47.032;15.484;2023-05-20T00:22:55;13.90;1.00
41469;DHT22;27206;47.032;15.484;2023-05-20T00:25:20;13.90;1.00
41469;DHT22;27206;47.032;15.484;2023-05-20T00:27:46;13.90;1.00
41469;DHT22;27206;47.032;15.484;2023-05-20T00:30:12;13.90;1.00
41469;DHT22;27206;47.032;15.484;2023-05-20T00:32:38;13.90;1.00
41469;DHT22;27206;47.032;15.484;2023-05-20T00:35:04;13.90;1.00
41469;DHT22;27206;47.032;15.484;2023-05-20T00:37:30;13.80;1.00
41469;DHT22;27206;47.032;15.484;2023-05-20T00:39:56;13.90;1.00
41469;DHT22;27206;47.032;15.484;2023-05-20T00:42:27;13.90;1.00
41469;DHT22;27206;47.032;15.484;2023-05-20T00:44:54;13.80;1.00
41469;DHT22;27206;47.032;15.484;2023-05-20T00:47:24;13.80;1.00
41469;DHT22;27206;47.032;15.484;2023-05-20T00:49:50;13.70;1.00
41469;DHT22;27206;47.032;15.484;2023-05-20T00:52:17;13.60;1.00
41469;DHT22;27206;47.032;15.484;2023-05-20T00:54:44;13.60;1.00
41469;DHT22;27206;47.032;15.484;2023-05-20T00:57:10;13.70;1.00
41469;DHT22;27206;47.032;15.484;2023-05-20T00:59:37;13.60;1.00
41469;DHT22;27206;47.032;15.484;2023-05-20T01:02:06;13.60;1.00
41469;DHT22;27206;47.032;15.484;2023-05-20T01:04:32;13.60;1.00
41469;DHT22;27206;47.032;15.484;2023-05-20T01:06:59;13.60;1.00
41469;DHT22;27206;47.032;15.484;2023-05-20T01:09:27;13.60;1.00
41469;DHT22;27206;47.032;15.484;2023-05-20T01:12:01;13.60;1.00
41469;DHT22;27206;47.032;15.484;2023-05-20T01:14:32;13.50;1.00
41469;DHT22;27206;47.032;15.484;2023-05-20T01:17:01;13.50;1.00
41469;DHT22;27206;47.032;15.484;2023-05-20T01:19:44;13.50;1.00
41469;DHT22;27206;47.032;15.484;2023-05-20T01:22:11;13.50;1.00
41469;DHT22;27206;47.032;15.484;2023-05-20T01:24:45;13.50;1.00
41469;DHT22;27206;47.032;15.484;2023-05-20T01:27:12;13.50;1.00
41469;DHT22;27206;47.032;15.484;2023-05-20T01:29:39;13.50;1.00
41469;DHT22;27206;47.032;15.484;2023-05-20T01:32:08;13.50;1.00
41469;DHT22;27206;47.032;15.484;2023-05-20T01:34:35;13.50;1.00
41469;DHT22;27206;47.032;15.484;2023-05-20T01:37:03;13.50;1.00
41469;DHT22;27206;47.032;15.484;2023-05-20T01:39:30;13.40;1.00
41469;DHT22;27206;47.032;15.484;2023-05-20T01:41:58;13.40;1.00
41469;DHT22;27206;47.032;15.484;2023-05-20T01:44:24;13.30;1.00
41469;DHT22;27206;47.032;15.484;2023-05-20T01:46:50;13.20;1.00
41469;DHT22;27206;47.032;15.484;2023-05-20T01:49:16;13.40;1.00
41469;DHT22;27206;47.032;15.484;2023-05-20T01:51:41;13.40;1.00
41469;DHT22;27206;47.032;15.484;2023-05-20T01:54:07;13.50;1.00
41469;DHT22;27206;47.032;15.484;2023-05-20T01:56:33;13.40;1.00
41469;DHT22;27206;47.032;15.484;2023-05-20T01:58:59;13.40;1.00
41469;DHT22;27206;47.032;15.484;2023-05-20T02:01:24;13.50;1.00
41469;DHT22;27206;47.032;15.484;2023-05-20T02:03:50;13.50;1.00
41469;DHT22;27206;47.032;15.484;2023-05-20T02:06:16;13.40;1.00
41469;DHT22;27206;47.032;15.484;2023-05-20T02:08:41;13.40;1.00
41469;DHT22;27206;47.032;15.484;2023-05-20T02:11:07;13.40;1.00
41469;DHT22;27206;47.032;15.484;2023-05-20T02:13:33;13.40;1.00
41469;DHT22;27206;47.032;15.484;2023-05-20T02:15:58;13.40;1.00
41469;DHT22;27206;47.032;15.484;2023-05-20T02:18:24;13.30;1.00
41469;DHT22;27206;47.032;15.484;2023-05-20T02:20:51;13.30;1.00
41469;DHT22;27206;47.032;15.484;2023-05-20T02:23:17;13.40;1.00
41469;DHT22;27206;47.032;15.484;2023-05-20T02:25:43;13.40;1.00
41469;DHT22;27206;47.032;15.484;2023-05-20T02:28:08;13.30;1.00
41469;DHT22;27206;47.032;15.484;2023-05-20T02:30:38;13.30;1.00
41469;DHT22;27206;47.032;15.484;2023-05-20T02:33:03;13.30;1.00
41469;DHT22;27206;47.032;15.484;2023-05-20T02:35:29;13.40;1.00
41469;DHT22;27206;47.032;15.484;2023-05-20T02:37:55;13.40;1.00
41469;DHT22;27206;47.032;15.484;2023-05-20T02:40:21;13.40;1.00
41469;DHT22;27206;47.032;15.484;2023-05-20T02:42:47;13.50;1.00
41469;DHT22;27206;47.032;15.484;2023-05-20T02:45:13;13.50;1.00
41469;DHT22;27206;47.032;15.484;2023-05-20T02:47:38;13.60;1.00
41469;DHT22;27206;47.032;15.484;2023-05-20T02:50:04;13.50;1.00
41469;DHT22;27206;47.032;15.484;2023-05-20T02:52:31;13.60;1.00
41469;DHT22;27206;47.032;15.484;2023-05-20T02:54:57;13.60;1.00
41469;DHT22;27206;47.032;15.484;2023-05-20T02:57:22;13.60;1.00
41469;DHT22;27206;47.032;15.484;2023-05-20T02:59:48;13.60;1.00
41469;DHT22;27206;47.032;15.484;2023-05-20T03:02:14;13.60;1.00
41469;DHT22;27206;47.032;15.484;2023-05-20T03:04:40;13.60;1.00
41469;DHT22;27206;47.032;15.484;2023-05-20T03:07:08;13.60;1.00
41469;DHT22;27206;47.032;15.484;2023-05-20T03:09:34;13.70;1.00
41469;DHT22;27206;47.032;15.484;2023-05-20T03:12:00;13.80;1.00
41469;DHT22;27206;47.032;15.484;2023-05-20T03:14:25;13.80;1.00
41469;DHT22;27206;47.032;15.484;2023-05-20T03:16:53;13.70;1.00
41469;DHT22;27206;47.032;15.484;2023-05-20T03:19:20;13.70;1.00
41469;DHT22;27206;47.032;15.484;2023-05-20T03:21:49;13.70;1.00
41469;DHT22;27206;47.032;15.484;2023-05-20T03:24:15;13.60;1.00
41469;DHT22;27206;47.032;15.484;2023-05-20T03:26:41;13.60;1.00
41469;DHT22;27206;47.032;15.484;2023-05-20T03:29:08;13.60;1.00
41469;DHT22;27206;47.032;15.484;2023-05-20T03:31:35;13.50;1.00
41469;DHT22;27206;47.032;15.484;2023-05-20T03:34:01;13.40;1.00
41469;DHT22;27206;47.032;15.484;2023-05-20T03:36:26;13.50;1.00
41469;DHT22;27206;47.032;15.484;2023-05-20T03:38:52;13.50;1.00
41469;DHT22;27206;47.032;15.484;2023-05-20T03:41:18;13.50;1.00
41469;DHT22;27206;47.032;15.484;2023-05-20T03:43:44;13.50;1.00
41469;DHT22;27206;47.032;15.484;2023-05-20T03:46:09;13.60;1.00
41469;DHT22;27206;47.032;15.484;2023-05-20T03:48:35;13.50;1.00
41469;DHT22;27206;47.032;15.484;2023-05-20T03:51:01;13.50;1.00
41469;DHT22;27206;47.032;15.484;2023-05-20T03:53:26;13.50;1.00
41469;DHT22;27206;47.032;15.484;2023-05-20T03:55:52;13.50;1.00
41469;DHT22;27206;47.032;15.484;2023-05-20T03:58:18;13.50;1.00
41469;DHT22;27206;47.032;15.484;2023-05-20T04:00:47;13.50;1.00
41469;DHT22;27206;47.032;15.484;2023-05-20T04:03:13;13.50;1.00
41469;DHT22;27206;47.032;15.484;2023-05-20T04:05:39;13.50;1.00
41469;DHT22;27206;47.032;15.484;2023-05-20T04:08:04;13.40;1.00
41469;DHT22;27206;47.032;15.484;2023-05-20T04:10:30;13.50;1.00
41469;DHT22;27206;47.032;15.484;2023-05-20T04:12:59;13.50;1.00
41469;DHT22;27206;47.032;15.484;2023-05-20T04:15:25;13.50;1.00
41469;DHT22;27206;47.032;15.484;2023-05-20T04:17:51;13.50;1.00
41469;DHT22;27206;47.032;15.484;2023-05-20T04:20:17;13.50;1.00
41469;DHT22;27206;47.032;15.484;2023-05-20T04:22:44;13.60;1.00
41469;DHT22;27206;47.032;15.484;2023-05-20T04:25:10;13.60;1.00
41469;DHT22;27206;47.032;15.484;2023-05-20T04:27:35;13.70;1.00
41469;DHT22;27206;47.032;15.484;2023-05-20T04:30:05;13.70;1.00
41469;DHT22;27206;47.032;15.484;2023-05-20T04:32:31;13.80;1.00
41469;DHT22;27206;47.032;15.484;2023-05-20T04:34:58;13.70;1.00
41469;DHT22;27206;47.032;15.484;2023-05-20T04:37:26;13.70;1.00
41469;DHT22;27206;47.032;15.484;2023-05-20T04:39:52;13.70;1.00
41469;DHT22;27206;47.032;15.484;2023-05-20T04:42:18;13.80;1.00
41469;DHT22;27206;47.032;15.484;2023-05-20T04:44:45;13.80;1.00
41469;DHT22;27206;47.032;15.484;2023-05-20T04:47:15;13.90;1.00
41469;DHT22;27206;47.032;15.484;2023-05-20T04:49:41;13.90;1.00
41469;DHT22;27206;47.032;15.484;2023-05-20T04:52:06;13.90;1.00
41469;DHT22;27206;47.032;15.484;2023-05-20T04:54:32;13.90;1.00
41469;DHT22;27206;47.032;15.484;2023-05-20T04:56:58;13.90;1.00
41469;DHT22;27206;47.032;15.484;2023-05-20T04:59:24;14.10;1.00
41469;DHT22;27206;47.032;15.484;2023-05-20T05:01:50;14.10;1.00
41469;DHT22;27206;47.032;15.484;2023-05-20T05:04:15;14.10;1.00
41469;DHT22;27206;47.032;15.484;2023-05-20T05:06:41;14.20;1.00
41469;DHT22;27206;47.032;15.484;2023-05-20T05:09:07;14.30;1.00
41469;DHT22;27206;47.032;15.484;2023-05-20T05:11:32;14.30;1.00
41469;DHT22;27206;47.032;15.484;2023-05-20T05:13:58;14.30;1.00
41469;DHT22;27206;47.032;15.484;2023-05-20T05:16:24;14.50;1.00
41469;DHT22;27206;47.032;15.484;2023-05-20T05:18:50;14.50;1.00
41469;DHT22;27206;47.032;15.484;2023-05-20T05:21:16;14.60;1.00
41469;DHT22;27206;47.032;15.484;2023-05-20T05:23:41;14.60;1.00
41469;DHT22;27206;47.032;15.484;2023-05-20T05:26:07;14.60;1.00
41469;DHT22;27206;47.032;15.484;2023-05-20T05:28:33;14.60;1.00
41469;DHT22;27206;47.032;15.484;2023-05-20T05:30:58;14.60;1.00
41469;DHT22;27206;47.032;15.484;2023-05-20T05:33:26;14.70;1.00
41469;DHT22;27206;47.032;15.484;2023-05-20T05:35:52;14.80;1.00
41469;DHT22;27206;47.032;15.484;2023-05-20T05:38:18;14.80;1.00
41469;DHT22;27206;47.032;15.484;2023-05-20T05:40:43;14.80;1.00
41469;DHT22;27206;47.032;15.484;2023-05-20T05:43:09;14.80;1.00
41469;DHT22;27206;47.032;15.484;2023-05-20T05:45:35;14.80;1.00
41469;DHT22;27206;47.032;15.484;2023-05-20T05:48:00;14.90;1.00
41469;DHT22;27206;47.032;15.484;2023-05-20T05:50:26;14.90;1.00
41469;DHT22;27206;47.032;15.484;2023-05-20T05:52:52;14.90;1.00
41469;DHT22;27206;47.032;15.484;2023-05-20T05:55:18;15.00;1.00
41469;DHT22;27206;47.032;15.484;2023-05-20T05:57:43;15.00;1.00
41469;DHT22;27206;47.032;15.484;2023-05-20T06:00:10;15.10;1.00
41469;DHT22;27206;47.032;15.484;2023-05-20T06:02:35;15.20;1.00
41469;DHT22;27206;47.032;15.484;2023-05-20T06:05:02;15.20;1.00
41469;DHT22;27206;47.032;15.484;2023-05-20T06:07:28;15.40;1.00
41469;DHT22;27206;47.032;15.484;2023-05-20T06:09:54;15.60;99.90
41469;DHT22;27206;47.032;15.484;2023-05-20T06:12:19;15.70;99.90
41469;DHT22;27206;47.032;15.484;2023-05-20T06:14:46;15.80;99.90
41469;DHT22;27206;47.032;15.484;2023-05-20T06:17:12;16.00;99.90
41469;DHT22;27206;47.032;15.484;2023-05-20T06:19:37;16.10;99.90
41469;DHT22;27206;47.032;15.484;2023-05-20T06:22:03;16.10;99.90
41469;DHT22;27206;47.032;15.484;2023-05-20T06:24:29;16.00;99.90
41469;DHT22;27206;47.032;15.484;2023-05-20T06:26:55;15.80;99.90
41469;DHT22;27206;47.032;15.484;2023-05-20T06:29:22;15.90;99.90
41469;DHT22;27206;47.032;15.484;2023-05-20T06:31:47;15.90;99.90
41469;DHT22;27206;47.032;15.484;2023-05-20T06:34:13;16.10;99.90
41469;DHT22;27206;47.032;15.484;2023-05-20T06:36:39;16.20;99.90
41469;DHT22;27206;47.032;15.484;2023-05-20T06:39:04;16.20;99.90
41469;DHT22;27206;47.032;15.484;2023-05-20T06:41:35;16.30;99.90
41469;DHT22;27206;47.032;15.484;2023-05-20T06:44:01;16.40;99.90
41469;DHT22;27206;47.032;15.484;2023-05-20T06:46:27;16.50;99.90
41469;DHT22;27206;47.032;15.484;2023-05-20T06:48:52;16.60;99.90
41469;DHT22;27206;47.032;15.484;2023-05-20T06:51:18;16.70;99.90
41469;DHT22;27206;47.032;15.484;2023-05-20T06:53:44;16.80;99.90
41469;DHT22;27206;47.032;15.484;2023-05-20T06:56:09;16.70;99.90
41469;DHT22;27206;47.032;15.484;2023-05-20T06:58:35;16.80;99.90
41469;DHT22;27206;47.032;15.484;2023-05-20T07:01:01;16.80;99.90
41469;DHT22;27206;47.032;15.484;2023-05-20T07:03:26;16.80;99.90
41469;DHT22;27206;47.032;15.484;2023-05-20T07:05:52;17.00;99.90
41469;DHT22;27206;47.032;15.484;2023-05-20T07:08:17;17.10;99.90
41469;DHT22;27206;47.032;15.484;2023-05-20T07:10:44;17.30;99.90
41469;DHT22;27206;47.032;15.484;2023-05-20T07:13:10;17.20;99.90
41469;DHT22;27206;47.032;15.484;2023-05-20T07:15:36;17.30;99.90
41469;DHT22;27206;47.032;15.484;2023-05-20T07:18:02;17.50;99.90
41469;DHT22;27206;47.032;15.484;2023-05-20T07:20:28;17.50;99.90
41469;DHT22;27206;47.032;15.484;2023-05-20T07:22:54;17.70;99.90
41469;DHT22;27206;47.032;15.484;2023-05-20T07:25:20;17.90;99.90
41469;DHT22;27206;47.032;15.484;2023-05-20T07:27:45;17.90;99.90
41469;DHT22;27206;47.032;15.484;2023-05-20T07:30:11;18.00;99.90
41469;DHT22;27206;47.032;15.484;2023-05-20T07:32:37;18.20;99.90
41469;DHT22;27206;47.032;15.484;2023-05-20T07:35:02;18.40;99.90
41469;DHT22;27206;47.032;15.484;2023-05-20T07:37:28;18.70;99.90
41469;DHT22;27206;47.032;15.484;2023-05-20T07:39:54;18.70;99.90
41469;DHT22;27206;47.032;15.484;2023-05-20T07:42:20;18.60;99.90
41469;DHT22;27206;47.032;15.484;2023-05-20T07:44:45;18.70;99.90
41469;DHT22;27206;47.032;15.484;2023-05-20T07:47:12;18.70;99.90
41469;DHT22;27206;47.032;15.484;2023-05-20T07:49:38;18.70;99.90
41469;DHT22;27206;47.032;15.484;2023-05-20T07:52:04;18.70;99.90
41469;DHT22;27206;47.032;15.484;2023-05-20T07:54:30;18.80;99.90
41469;DHT22;27206;47.032;15.484;2023-05-20T07:56:55;18.80;99.90
41469;DHT22;27206;47.032;15.484;2023-05-20T07:59:21;18.70;99.90
41469;DHT22;27206;47.032;15.484;2023-05-20T08:01:46;18.70;99.90
41469;DHT22;27206;47.032;15.484;2023-05-20T08:04:12;18.60;99.90
41469;DHT22;27206;47.032;15.484;2023-05-20T08:06:41;18.70;99.90
41469;DHT22;27206;47.032;15.484;2023-05-20T08:09:08;18.80;99.90
41469;DHT22;27206;47.032;15.484;2023-05-20T08:11:34;18.80;99.90
41469;DHT22;27206;47.032;15.484;2023-05-20T08:14:00;18.80;99.90
41469;DHT22;27206;47.032;15.484;2023-05-20T08:16:26;18.90;99.90
41469;DHT22;27206;47.032;15.484;2023-05-20T08:18:52;19.20;99.90
41469;DHT22;27206;47.032;15.484;2023-05-20T08:21:18;19.40;99.90
41469;DHT22;27206;47.032;15.484;2023-05-20T08:23:43;19.50;99.90
41469;DHT22;27206;47.032;15.484;2023-05-20T08:26:09;19.60;99.90
41469;DHT22;27206;47.032;15.484;2023-05-20T08:28:35;19.70;99.90
41469;DHT22;27206;47.032;15.484;2023-05-20T08:31:02;19.50;99.90
41469;DHT22;27206;47.032;15.484;2023-05-20T08:33:28;19.70;99.90
41469;DHT22;27206;47.032;15.484;2023-05-20T08:35:53;19.60;99.90
41469;DHT22;27206;47.032;15.484;2023-05-20T08:38:19;19.80;99.90
41469;DHT22;27206;47.032;15.484;2023-05-20T08:40:45;20.00;99.90
41469;DHT22;27206;47.032;15.484;2023-05-20T08:43:15;20.40;99.90
41469;DHT22;27206;47.032;15.484;2023-05-20T08:45:41;20.50;99.90
41469;DHT22;27206;47.032;15.484;2023-05-20T08:48:07;20.50;99.90
41469;DHT22;27206;47.032;15.484;2023-05-20T08:50:33;20.50;99.90
41469;DHT22;27206;47.032;15.484;2023-05-20T08:52:58;20.50;99.90
41469;DHT22;27206;47.032;15.484;2023-05-20T08:57:52;20.50;99.90
41469;DHT22;27206;47.032;15.484;2023-05-20T09:00:20;20.50;99.90
41469;DHT22;27206;47.032;15.484;2023-05-20T09:02:48;20.60;99.90
41469;DHT22;27206;47.032;15.484;2023-05-20T09:05:13;21.10;99.90
41469;DHT22;27206;47.032;15.484;2023-05-20T09:07:39;21.30;99.90
41469;DHT22;27206;47.032;15.484;2023-05-20T09:10:07;20.80;99.90
41469;DHT22;27206;47.032;15.484;2023-05-20T09:12:34;20.90;99.90
41469;DHT22;27206;47.032;15.484;2023-05-20T09:15:00;21.00;99.90
41469;DHT22;27206;47.032;15.484;2023-05-20T09:17:25;21.10;99.90
41469;DHT22;27206;47.032;15.484;2023-05-20T09:19:52;21.30;99.90
41469;DHT22;27206;47.032;15.484;2023-05-20T09:22:26;21.70;99.90
41469;DHT22;27206;47.032;15.484;2023-05-20T09:24:52;22.00;99.90
41469;DHT22;27206;47.032;15.484;2023-05-20T09:27:21;22.30;99.90
41469;DHT22;27206;47.032;15.484;2023-05-20T09:29:48;22.70;99.90
41469;DHT22;27206;47.032;15.484;2023-05-20T09:32:15;23.10;99.90
41469;DHT22;27206;47.032;15.484;2023-05-20T09:34:41;22.60;99.90
41469;DHT22;27206;47.032;15.484;2023-05-20T09:37:08;22.10;99.90
41469;DHT22;27206;47.032;15.484;2023-05-20T09:39:55;22.20;99.90
41469;DHT22;27206;47.032;15.484;2023-05-20T09:42:25;22.40;99.90
41469;DHT22;27206;47.032;15.484;2023-05-20T09:44:54;22.20;99.90
41469;DHT22;27206;47.032;15.484;2023-05-20T09:47:23;22.20;99.90
41469;DHT22;27206;47.032;15.484;2023-05-20T09:49:51;22.40;99.90
41469;DHT22;27206;47.032;15.484;2023-05-20T09:52:17;22.60;99.90
41469;DHT22;27206;47.032;15.484;2023-05-20T09:54:45;22.80;99.90
41469;DHT22;27206;47.032;15.484;2023-05-20T09:57:12;23.30;99.90
41469;DHT22;27206;47.032;15.484;2023-05-20T09:59:39;23.90;99.90
41469;DHT22;27206;47.032;15.484;2023-05-20T10:02:06;23.90;99.90
41469;DHT22;27206;47.032;15.484;2023-05-20T10:04:34;23.60;99.90
41469;DHT22;27206;47.032;15.484;2023-05-20T10:07:32;23.60;99.90
41469;DHT22;27206;47.032;15.484;2023-05-20T10:15:50;24.40;99.90
41469;DHT22;27206;47.032;15.484;2023-05-20T10:20:59;24.40;99.90
41469;DHT22;27206;47.032;15.484;2023-05-20T10:23:29;24.10;99.90
41469;DHT22;27206;47.032;15.484;2023-05-20T10:25:56;24.10;99.90
41469;DHT22;27206;47.032;15.484;2023-05-20T10:28:30;24.10;99.90
41469;DHT22;27206;47.032;15.484;2023-05-20T10:30:57;24.10;99.90
41469;DHT22;27206;47.032;15.484;2023-05-20T10:33:27;24.20;99.90
41469;DHT22;27206;47.032;15.484;2023-05-20T10:35:58;23.90;99.90
41469;DHT22;27206;47.032;15.484;2023-05-20T10:38:24;23.80;99.90
41469;DHT22;27206;47.032;15.484;2023-05-20T10:40:50;24.20;99.90
41469;DHT22;27206;47.032;15.484;2023-05-20T10:43:25;24.60;99.90
41469;DHT22;27206;47.032;15.484;2023-05-20T10:45:52;25.00;99.90
41469;DHT22;27206;47.032;15.484;2023-05-20T10:48:23;24.90;99.90
41469;DHT22;27206;47.032;15.484;2023-05-20T10:50:53;25.00;99.90
41469;DHT22;27206;47.032;15.484;2023-05-20T10:53:22;25.20;99.90
41469;DHT22;27206;47.032;15.484;2023-05-20T10:55:50;25.80;99.90
41469;DHT22;27206;47.032;15.484;2023-05-20T10:58:17;25.70;99.90
41469;DHT22;27206;47.032;15.484;2023-05-20T11:00:44;25.10;99.90
41469;DHT22;27206;47.032;15.484;2023-05-20T11:03:10;25.40;99.90
41469;DHT22;27206;47.032;15.484;2023-05-20T11:05:39;25.50;99.90
41469;DHT22;27206;47.032;15.484;2023-05-20T11:08:08;25.70;99.90
41469;DHT22;27206;47.032;15.484;2023-05-20T11:10:35;25.10;99.90
41469;DHT22;27206;47.032;15.484;2023-05-20T11:13:02;25.00;99.90
41469;DHT22;27206;47.032;15.484;2023-05-20T11:15:29;25.50;99.90
41469;DHT22;27206;47.032;15.484;2023-05-20T11:17:56;25.00;99.90
41469;DHT22;27206;47.032;15.484;2023-05-20T11:20:22;24.60;99.90
41469;DHT22;27206;47.032;15.484;2023-05-20T11:22:53;24.90;99.90
41469;DHT22;27206;47.032;15.484;2023-05-20T11:25:19;25.20;99.90
41469;DHT22;27206;47.032;15.484;2023-05-20T11:27:45;25.80;99.90
41469;DHT22;27206;47.032;15.484;2023-05-20T11:30:13;26.20;99.90
41469;DHT22;27206;47.032;15.484;2023-05-20T11:32:56;25.30;99.90
41469;DHT22;27206;47.032;15.484;2023-05-20T11:35:24;24.80;99.90
41469;DHT22;27206;47.032;15.484;2023-05-20T11:37:57;24.80;99.90
41469;DHT22;27206;47.032;15.484;2023-05-20T11:40:26;26.10;99.90
41469;DHT22;27206;47.032;15.484;2023-05-20T11:42:56;26.60;99.90
41469;DHT22;27206;47.032;15.484;2023-05-20T11:45:23;26.70;99.90
41469;DHT22;27206;47.032;15.484;2023-05-20T11:47:59;26.90;99.90
41469;DHT22;27206;47.032;15.484;2023-05-20T11:50:25;26.50;99.90
41469;DHT22;27206;47.032;15.484;2023-05-20T11:52:57;25.90;99.90
41469;DHT22;27206;47.032;15.484;2023-05-20T11:55:23;25.80;99.90
41469;DHT22;27206;47.032;15.484;2023-05-20T11:57:49;25.80;99.90
41469;DHT22;27206;47.032;15.484;2023-05-20T12:00:16;25.80;99.90
41469;DHT22;27206;47.032;15.484;2023-05-20T12:02:42;25.80;99.90
41469;DHT22;27206;47.032;15.484;2023-05-20T12:05:08;26.00;99.90
41469;DHT22;27206;47.032;15.484;2023-05-20T12:07:34;26.30;99.90
41469;DHT22;27206;47.032;15.484;2023-05-20T12:10:02;25.70;99.90
41469;DHT22;27206;47.032;15.484;2023-05-20T12:12:28;25.30;99.90
41469;DHT22;27206;47.032;15.484;2023-05-20T12:14:53;25.20;99.90
41469;DHT22;27206;47.032;15.484;2023-05-20T12:17:19;25.20;99.90
41469;DHT22;27206;47.032;15.484;2023-05-20T12:19:45;25.50;99.90
41469;DHT22;27206;47.032;15.484;2023-05-20T12:22:10;25.90;99.90
41469;DHT22;27206;47.032;15.484;2023-05-20T12:24:36;25.70;99.90
41469;DHT22;27206;47.032;15.484;2023-05-20T12:27:01;25.40;99.90
41469;DHT22;27206;47.032;15.484;2023-05-20T12:29:28;25.70;99.90
41469;DHT22;27206;47.032;15.484;2023-05-20T12:31:54;25.70;99.90
41469;DHT22;27206;47.032;15.484;2023-05-20T12:34:20;25.60;99.90
41469;DHT22;27206;47.032;15.484;2023-05-20T12:36:45;25.20;99.90
41469;DHT22;27206;47.032;15.484;2023-05-20T12:39:12;25.30;99.90
41469;DHT22;27206;47.032;15.484;2023-05-20T12:41:39;25.60;99.90
41469;DHT22;27206;47.032;15.484;2023-05-20T12:44:06;25.90;99.90
41469;DHT22;27206;47.032;15.484;2023-05-20T12:46:33;25.90;99.90
41469;DHT22;27206;47.032;15.484;2023-05-20T12:48:59;25.90;99.90
41469;DHT22;27206;47.032;15.484;2023-05-20T12:51:24;25.90;99.90
41469;DHT22;27206;47.032;15.484;2023-05-20T12:53:50;25.80;99.90
41469;DHT22;27206;47.032;15.484;2023-05-20T12:56:15;25.90;99.90
41469;DHT22;27206;47.032;15.484;2023-05-20T12:58:42;26.10;99.90
41469;DHT22;27206;47.032;15.484;2023-05-20T13:01:07;26.30;99.90
41469;DHT22;27206;47.032;15.484;2023-05-20T13:03:33;26.30;99.90
41469;DHT22;27206;47.032;15.484;2023-05-20T13:05:58;26.60;99.90
41469;DHT22;27206;47.032;15.484;2023-05-20T13:08:24;26.80;99.90
41469;DHT22;27206;47.032;15.484;2023-05-20T13:10:50;26.90;99.90
41469;DHT22;27206;47.032;15.484;2023-05-20T13:13:16;26.50;99.90
41469;DHT22;27206;47.032;15.484;2023-05-20T13:15:46;26.20;99.90
41469;DHT22;27206;47.032;15.484;2023-05-20T13:18:13;25.80;99.90
41469;DHT22;27206;47.032;15.484;2023-05-20T13:20:44;26.10;99.90
41469;DHT22;27206;47.032;15.484;2023-05-20T13:23:10;26.20;99.90
41469;DHT22;27206;47.032;15.484;2023-05-20T13:25:36;25.70;99.90
41469;DHT22;27206;47.032;15.484;2023-05-20T13:28:03;25.90;99.90
41469;DHT22;27206;47.032;15.484;2023-05-20T13:30:29;25.70;99.90
41469;DHT22;27206;47.032;15.484;2023-05-20T13:32:54;25.10;99.90
41469;DHT22;27206;47.032;15.484;2023-05-20T13:35:20;24.50;99.90
41469;DHT22;27206;47.032;15.484;2023-05-20T13:37:46;24.30;99.90
41469;DHT22;27206;47.032;15.484;2023-05-20T13:40:11;24.30;99.90
41469;DHT22;27206;47.032;15.484;2023-05-20T13:42:37;24.30;99.90
41469;DHT22;27206;47.032;15.484;2023-05-20T13:45:03;24.20;99.90
41469;DHT22;27206;47.032;15.484;2023-05-20T13:47:30;23.80;99.90
41469;DHT22;27206;47.032;15.484;2023-05-20T13:49:56;23.60;99.90
41469;DHT22;27206;47.032;15.484;2023-05-20T13:52:22;23.50;99.90
41469;DHT22;27206;47.032;15.484;2023-05-20T13:54:47;23.40;99.90
41469;DHT22;27206;47.032;15.484;2023-05-20T13:57:14;23.50;99.90
41469;DHT22;27206;47.032;15.484;2023-05-20T13:59:41;24.20;99.90
41469;DHT22;27206;47.032;15.484;2023-05-20T14:02:07;25.40;99.90
41469;DHT22;27206;47.032;15.484;2023-05-20T14:04:33;26.50;99.90
41469;DHT22;27206;47.032;15.484;2023-05-20T14:07:05;27.30;99.90
41469;DHT22;27206;47.032;15.484;2023-05-20T14:09:31;27.80;99.90
41469;DHT22;27206;47.032;15.484;2023-05-20T14:11:56;28.30;99.90
41469;DHT22;27206;47.032;15.484;2023-05-20T14:14:22;28.10;99.90
41469;DHT22;27206;47.032;15.484;2023-05-20T14:16:50;28.00;99.90
41469;DHT22;27206;47.032;15.484;2023-05-20T14:19:15;28.10;99.90
41469;DHT22;27206;47.032;15.484;2023-05-20T14:21:41;28.00;99.90
41469;DHT22;27206;47.032;15.484;2023-05-20T14:24:06;28.10;99.90
41469;DHT22;27206;47.032;15.484;2023-05-20T14:26:32;27.40;99.90
41469;DHT22;27206;47.032;15.484;2023-05-20T14:28:59;27.20;99.90
41469;DHT22;27206;47.032;15.484;2023-05-20T14:31:25;26.90;99.90
41469;DHT22;27206;47.032;15.484;2023-05-20T14:33:51;27.00;99.90
41469;DHT22;27206;47.032;15.484;2023-05-20T14:36:17;27.30;99.90
41469;DHT22;27206;47.032;15.484;2023-05-20T14:38:43;26.90;99.90
41469;DHT22;27206;47.032;15.484;2023-05-20T14:41:08;26.10;99.90
41469;DHT22;27206;47.032;15.484;2023-05-20T14:43:34;25.80;99.90
41469;DHT22;27206;47.032;15.484;2023-05-20T14:46:01;25.40;99.90
41469;DHT22;27206;47.032;15.484;2023-05-20T14:48:27;25.20;99.90
41469;DHT22;27206;47.032;15.484;2023-05-20T14:50:53;25.10;99.90
41469;DHT22;27206;47.032;15.484;2023-05-20T14:53:18;24.90;99.90
41469;DHT22;27206;47.032;15.484;2023-05-20T14:55:44;24.60;99.90
41469;DHT22;27206;47.032;15.484;2023-05-20T14:58:10;24.60;99.90
41469;DHT22;27206;47.032;15.484;2023-05-20T15:00:36;24.30;99.90
41469;DHT22;27206;47.032;15.484;2023-05-20T15:03:01;24.30;99.90
41469;DHT22;27206;47.032;15.484;2023-05-20T15:05:27;24.30;99.90
41469;DHT22;27206;47.032;15.484;2023-05-20T15:07:53;24.30;99.90
41469;DHT22;27206;47.032;15.484;2023-05-20T15:10:18;24.50;99.90
41469;DHT22;27206;47.032;15.484;2023-05-20T15:12:44;24.70;99.90
41469;DHT22;27206;47.032;15.484;2023-05-20T15:15:10;24.70;99.90
41469;DHT22;27206;47.032;15.484;2023-05-20T15:17:35;24.80;99.90
41469;DHT22;27206;47.032;15.484;2023-05-20T15:20:01;24.90;99.90
41469;DHT22;27206;47.032;15.484;2023-05-20T15:22:27;24.90;99.90
41469;DHT22;27206;47.032;15.484;2023-05-20T15:24:53;24.90;99.90
41469;DHT22;27206;47.032;15.484;2023-05-20T15:27:18;24.90;99.90
41469;DHT22;27206;47.032;15.484;2023-05-20T15:29:44;24.90;99.90